Durand, Michigan
Current Conditions -  °F | °C
As of 12:33 PM on Thursday 30 Oct 2014 (Local Time) from KRNP Reporting Station
Overcast Overcast  
Wind Chill: 43°   Ceiling: 4600
Heat Index: 46°   Visibility: 10mi
Dew Point: 37°   Wind: 7mph
Humidity: 69%   Direction: 180°S
Pressure: 30.11"   Gusts: NA
Location:  42.91°N, 83.98°W
Report Text: KRNP 301633Z AUTO 18006KT 10SM OVC046 08/03 A3011 RMK AO2 T00790026
Loading
Personal Weather Stations






























Interactive Weather Map
Tropical Storm Tracking
New forecast layout! Learn more

10-Day Weather Forecast

Advertisements
Track Severe Weather on mobile